Time;durP1;ratioP1;P1;durP2;ratioP2;P2;SDS_P1;SDS_P2;PMS_P1;PMS_P2;Temp;Humidity;BMP_temperature;BMP_pressure;BME280_temperature;BME280_humidity;BME280_pressure;Samples;Min_cycle;Max_cycle;Signal;HPM_P1;HPM_P2
2022/09/03 00:01:58;;;;;;;6.20;4.00;;;;;;;11.43;57.87;98129.27;105502;1284;24305;-89
2022/09/03 00:04:56;;;;;;;5.00;3.70;;;;;;;11.43;57.82;98129.27;105553;1284;22830;-92
2022/09/03 00:07:43;;;;;;;6.50;4.10;;;;;;;11.43;58.02;98129.49;105727;1284;22713;-90
2022/09/03 00:10:19;;;;;;;6.50;4.10;;;;;;;11.41;58.08;98131.89;106721;1284;25357;-89
2022/09/03 00:12:53;;;;;;;8.10;4.20;;;;;;;11.41;58.39;98127.41;106115;1284;22569;-89
2022/09/03 00:15:23;;;;;;;7.10;4.60;;;;;;;11.40;58.56;98127.81;105774;1284;22703;-90
2022/09/03 00:17:57;;;;;;;6.50;4.10;;;;;;;11.38;58.72;98123.63;105746;1284;23267;-90
2022/09/03 00:20:42;;;;;;;7.80;4.30;;;;;;;11.36;58.95;98125.95;105582;1284;24460;-90
2022/09/03 00:23:18;;;;;;;6.20;4.50;;;;;;;11.33;58.91;98121.24;105645;1284;24127;-90
2022/09/03 00:26:14;;;;;;;7.40;4.90;;;;;;;11.32;59.03;98120.23;105526;1284;22551;-89
2022/09/03 00:29:05;;;;;;;5.40;4.20;;;;;;;11.33;59.16;98126.20;105556;1284;23019;-89
2022/09/03 00:31:42;;;;;;;7.30;3.90;;;;;;;11.32;59.16;98129.95;105563;1284;22670;-89
2022/09/03 00:34:14;;;;;;;8.30;4.20;;;;;;;11.30;59.06;98130.70;105404;1284;22696;-88
2022/09/03 00:36:45;;;;;;;8.40;4.60;;;;;;;11.28;59.25;98124.14;105427;1284;24269;-88
2022/09/03 00:39:18;;;;;;;7.60;4.00;;;;;;;11.30;59.28;98124.98;105374;1284;22563;-89
2022/09/03 00:42:08;;;;;;;5.30;4.00;;;;;;;11.33;59.78;98121.79;105452;1284;25225;-92
2022/09/03 00:45:05;;;;;;;8.00;4.50;;;;;;;11.35;59.67;98122.52;105466;1284;22705;-87
2022/09/03 00:48:04;;;;;;;9.10;4.00;;;;;;;11.34;59.88;98126.09;105467;1284;24378;-88
2022/09/03 00:50:59;;;;;;;7.10;4.20;;;;;;;11.30;60.04;98131.93;105490;1284;25462;-90
2022/09/03 00:54:02;;;;;;;7.30;4.50;;;;;;;11.25;60.10;98134.05;105587;1284;24346;-89
2022/09/03 00:57:01;;;;;;;6.30;4.30;;;;;;;11.21;60.08;98126.27;105564;1284;22580;-89
2022/09/03 00:59:36;;;;;;;8.70;4.50;;;;;;;11.15;59.89;98123.61;105606;1284;24114;-89
2022/09/03 01:02:10;;;;;;;6.80;4.10;;;;;;;11.10;60.04;98125.05;105623;1284;22619;-88
2022/09/03 01:04:38;;;;;;;6.20;3.80;;;;;;;11.07;59.89;98120.26;105835;1284;23974;-90
2022/09/03 01:07:45;;;;;;;5.50;4.20;;;;;;;11.02;59.77;98121.31;105692;1285;22562;-91
2022/09/03 01:10:24;;;;;;;6.90;4.20;;;;;;;10.97;59.81;98118.22;105643;1284;22627;-90
2022/09/03 01:13:07;;;;;;;8.40;4.40;;;;;;;10.91;60.00;98118.52;105502;1284;24345;-90
2022/09/03 01:15:53;;;;;;;7.20;4.30;;;;;;;10.84;60.23;98116.96;105542;1284;24255;-90
2022/09/03 01:18:52;;;;;;;5.70;4.10;;;;;;;10.79;60.02;98120.61;105582;1283;25938;-90
2022/09/03 01:21:22;;;;;;;10.20;4.60;;;;;;;10.74;60.25;98118.16;105627;1284;25375;-89
2022/09/03 01:24:45;;;;;;;7.10;4.60;;;;;;;10.70;60.56;98117.73;105502;1284;25571;-90
2022/09/03 01:27:18;;;;;;;6.50;4.00;;;;;;;10.66;60.37;98119.41;105129;1288;22887;-89
2022/09/03 01:29:54;;;;;;;8.00;4.40;;;;;;;10.63;60.41;98119.45;104903;1288;22777;-90
2022/09/03 01:32:52;;;;;;;8.90;4.50;;;;;;;10.60;60.72;98118.05;104896;1291;24338;-89
2022/09/03 01:35:27;;;;;;;7.60;4.90;;;;;;;10.60;60.53;98117.89;104864;1290;25490;-89
2022/09/03 01:38:23;;;;;;;6.70;4.20;;;;;;;10.62;60.90;98116.72;104942;1288;22575;-89
2022/09/03 01:42:12;;;;;;;8.80;4.40;;;;;;;10.66;61.22;98118.88;104961;1288;22693;-91
2022/09/03 01:44:08;;;;;;;7.30;4.70;;;;;;;10.68;61.73;98119.98;104957;1288;25311;-90
2022/09/03 01:46:39;;;;;;;9.10;4.70;;;;;;;10.66;61.80;98122.48;105033;1288;24359;-91
2022/09/03 01:49:33;;;;;;;9.90;4.90;;;;;;;10.62;61.79;98123.58;106212;1288;22771;-91
2022/09/03 01:52:49;;;;;;;9.40;5.30;;;;;;;10.59;61.80;98117.48;105207;1288;22706;-90
2022/09/03 01:55:31;;;;;;;7.90;5.30;;;;;;;10.57;61.82;98121.61;104833;1290;22568;-91
2022/09/03 01:58:11;;;;;;;7.90;5.10;;;;;;;10.55;61.96;98123.04;105014;1288;24695;-90
2022/09/03 02:00:43;;;;;;;6.50;4.90;;;;;;;10.53;61.69;98123.07;105048;1285;25523;-89
2022/09/03 02:03:14;;;;;;;8.40;6.00;;;;;;;10.51;61.94;98126.60;105805;1283;23544;-89
2022/09/03 02:05:42;;;;;;;7.20;5.40;;;;;;;10.49;61.98;98125.71;105704;1284;22695;-90
2022/09/03 02:08:11;;;;;;;11.30;5.50;;;;;;;10.47;62.02;98125.36;105730;1284;22584;-91
2022/09/03 02:10:44;;;;;;;9.80;5.70;;;;;;;10.47;62.22;98123.59;105729;1284;23113;-87
2022/09/03 02:13:18;;;;;;;7.10;5.30;;;;;;;10.50;62.46;98122.25;105663;1284;22792;-90
2022/09/03 02:15:50;;;;;;;10.80;5.80;;;;;;;10.52;62.82;98125.02;105781;1284;23328;-91
2022/09/03 02:18:24;;;;;;;6.90;5.80;;;;;;;10.52;63.00;98123.95;105898;1284;22560;-91
2022/09/03 02:20:54;;;;;;;8.30;5.60;;;;;;;10.50;63.35;98126.45;105757;1284;22572;-89
2022/09/03 02:23:23;;;;;;;9.30;5.70;;;;;;;10.48;63.36;98129.93;105616;1284;25280;-89
2022/09/03 02:26:01;;;;;;;10.40;6.10;;;;;;;10.44;63.45;98130.42;105686;1284;25429;-88
2022/09/03 02:28:31;;;;;;;8.80;6.00;;;;;;;10.39;64.10;98129.78;105612;1284;24137;-89
2022/09/03 02:30:59;;;;;;;10.60;5.80;;;;;;;10.35;63.97;98133.52;105710;1284;22577;-89
2022/09/03 02:33:28;;;;;;;11.50;6.10;;;;;;;10.31;64.41;98130.92;105704;1284;22554;-90
2022/09/03 02:35:56;;;;;;;8.80;5.90;;;;;;;10.30;64.81;98127.29;105724;1284;22569;-90
2022/09/03 02:38:25;;;;;;;13.00;6.10;;;;;;;10.32;65.19;98131.49;105678;1284;22566;-89
2022/09/03 02:40:54;;;;;;;11.60;6.00;;;;;;;10.36;64.95;98126.86;105583;1284;22634;-90
2022/09/03 02:43:38;;;;;;;10.10;6.20;;;;;;;10.43;65.53;98124.88;105583;1284;22637;-90
2022/09/03 02:46:11;;;;;;;8.80;6.00;;;;;;;10.48;64.96;98127.24;105642;1284;24715;-89
2022/09/03 02:48:39;;;;;;;8.50;6.10;;;;;;;10.51;65.23;98123.11;105645;1284;22645;-88
2022/09/03 02:51:07;;;;;;;10.20;6.20;;;;;;;10.53;65.43;98128.52;105629;1284;22665;-91
2022/09/03 02:53:42;;;;;;;11.60;6.30;;;;;;;10.54;65.32;98122.73;105794;1284;22693;-89
2022/09/03 02:56:11;;;;;;;10.40;5.90;;;;;;;10.54;65.15;98128.86;105638;1285;22625;-88
2022/09/03 02:58:39;;;;;;;9.90;6.30;;;;;;;10.57;65.13;98132.33;105687;1284;23971;-87
2022/09/03 03:01:07;;;;;;;9.60;6.00;;;;;;;10.62;65.21;98134.41;105793;1284;24237;-91
2022/09/03 03:03:35;;;;;;;9.00;6.40;;;;;;;10.66;65.63;98132.51;105670;1284;22662;-88
2022/09/03 03:06:05;;;;;;;9.30;6.50;;;;;;;10.69;65.82;98134.89;105476;1284;25337;-88
2022/09/03 03:08:34;;;;;;;9.10;6.00;;;;;;;10.68;65.84;98132.05;106101;1284;22608;-89
2022/09/03 03:11:02;;;;;;;10.50;6.60;;;;;;;10.66;66.07;98138.82;105826;1284;26524;-91
2022/09/03 03:13:30;;;;;;;11.70;6.60;;;;;;;10.62;66.30;98133.59;105808;1284;24229;-89
2022/09/03 03:16:07;;;;;;;8.10;5.90;;;;;;;10.58;66.22;98135.11;105761;1284;22714;-90
2022/09/03 03:18:35;;;;;;;12.50;6.20;;;;;;;10.52;66.66;98137.95;106387;1284;25358;-90
2022/09/03 03:21:11;;;;;;;7.40;5.60;;;;;;;10.45;66.59;98134.81;106035;1284;22794;-91
2022/09/03 03:23:39;;;;;;;9.30;6.50;;;;;;;10.41;66.47;98134.45;106201;1284;22543;-91
2022/09/03 03:26:10;;;;;;;10.00;6.00;;;;;;;10.38;67.48;98130.25;106031;1284;22571;-90
2022/09/03 03:28:38;;;;;;;8.10;6.30;;;;;;;10.34;67.72;98130.73;107254;1284;22569;-92
2022/09/03 03:31:14;;;;;;;11.20;6.80;;;;;;;10.29;67.88;98129.61;106300;1284;22553;-90
2022/09/03 03:33:43;;;;;;;10.50;6.00;;;;;;;10.24;68.26;98133.14;106107;1284;22539;-89
2022/09/03 03:36:14;;;;;;;12.70;6.50;;;;;;;10.19;68.12;98135.59;106496;1284;22598;-91
2022/09/03 03:38:43;;;;;;;10.20;6.00;;;;;;;10.12;68.09;98139.50;106838;1284;23496;-91
2022/09/03 03:41:11;;;;;;;7.30;5.40;;;;;;;10.07;68.43;98134.88;107164;1284;22568;-90
2022/09/03 03:43:39;;;;;;;11.60;6.30;;;;;;;10.07;68.40;98133.02;106799;1284;24357;-90
2022/09/03 03:46:09;;;;;;;12.20;6.10;;;;;;;10.08;69.52;98134.00;106300;1284;22494;-91
2022/09/03 03:48:38;;;;;;;11.70;6.30;;;;;;;10.06;69.04;98137.64;106288;1284;22614;-91
2022/09/03 03:51:08;;;;;;;10.00;6.30;;;;;;;10.03;69.10;98131.98;106291;1284;26035;-90
2022/09/03 03:53:37;;;;;;;9.10;6.40;;;;;;;9.99;68.75;98132.62;105968;1284;25307;-90
2022/09/03 03:56:09;;;;;;;8.70;5.90;;;;;;;9.96;68.77;98130.83;106012;1284;25232;-90
2022/09/03 03:58:41;;;;;;;9.60;6.50;;;;;;;9.92;68.39;98131.09;106157;1284;24284;-92
2022/09/03 04:01:13;;;;;;;11.40;6.60;;;;;;;9.92;68.86;98133.77;105792;1284;25340;-89
2022/09/03 04:03:42;;;;;;;9.10;6.60;;;;;;;9.92;68.92;98136.00;105958;1284;22566;-91
2022/09/03 04:06:12;;;;;;;12.50;6.20;;;;;;;9.92;69.54;98133.89;105753;1284;22535;-91
2022/09/03 04:08:42;;;;;;;10.00;6.30;;;;;;;9.92;69.51;98141.75;105888;1284;22583;-92
2022/09/03 04:11:16;;;;;;;7.40;5.90;;;;;;;9.90;69.63;98140.09;105880;1284;24340;-93
2022/09/03 04:13:46;;;;;;;7.80;5.80;;;;;;;9.89;69.94;98135.27;106025;1284;24238;-91
2022/09/03 04:16:17;;;;;;;12.90;6.20;;;;;;;9.87;70.26;98133.69;105800;1284;25907;-89
2022/09/03 04:18:48;;;;;;;11.40;6.20;;;;;;;9.87;70.38;98129.63;105780;1284;22562;-90
2022/09/03 04:21:19;;;;;;;11.20;6.20;;;;;;;9.90;70.94;98128.16;105976;1284;22593;-90
2022/09/03 04:23:49;;;;;;;9.30;5.90;;;;;;;9.92;70.61;98131.85;106044;1284;22880;-92
2022/09/03 04:26:30;;;;;;;7.30;5.70;;;;;;;9.93;70.38;98133.00;105922;1284;25247;-89
2022/09/03 04:29:01;;;;;;;10.40;7.20;;;;;;;9.96;70.46;98138.40;105753;1284;24277;-88
2022/09/03 04:31:30;;;;;;;10.60;7.80;;;;;;;9.99;70.60;98137.23;105755;1284;22545;-90
2022/09/03 04:33:58;;;;;;;16.50;10.90;;;;;;;10.03;70.72;98143.33;105769;1284;22553;-91
2022/09/03 04:36:28;;;;;;;16.60;10.60;;;;;;;10.10;70.78;98143.36;105748;1284;25772;-90
2022/09/03 04:39:00;;;;;;;12.90;10.50;;;;;;;10.18;70.56;98141.57;105768;1284;22749;-89
2022/09/03 04:41:30;;;;;;;10.60;9.30;;;;;;;10.27;71.34;98144.19;105516;1285;24243;-89
2022/09/03 04:43:58;;;;;;;13.50;7.80;;;;;;;10.33;71.87;98146.10;105639;1284;22560;-91
2022/09/03 04:46:31;;;;;;;9.70;7.40;;;;;;;10.36;72.05;98146.06;105576;1284;22576;-93
2022/09/03 04:49:01;;;;;;;10.10;7.40;;;;;;;10.37;71.90;98145.82;105710;1284;25365;-90
2022/09/03 04:51:30;;;;;;;8.90;6.40;;;;;;;10.37;72.12;98149.11;105655;1284;25240;-89
2022/09/03 04:54:00;;;;;;;9.90;6.30;;;;;;;10.39;72.31;98149.66;105609;1284;22562;-88
2022/09/03 04:56:31;;;;;;;7.40;6.50;;;;;;;10.44;72.07;98152.27;105770;1284;24220;-89
2022/09/03 04:59:02;;;;;;;8.70;5.90;;;;;;;10.51;71.78;98152.89;105743;1284;24050;-89
2022/09/03 05:01:32;;;;;;;9.80;6.20;;;;;;;10.57;72.19;98154.48;105786;1284;24213;-91
2022/09/03 05:04:00;;;;;;;10.60;7.30;;;;;;;10.60;72.21;98157.88;105776;1284;22786;-90
2022/09/03 05:06:30;;;;;;;8.50;7.50;;;;;;;10.64;71.88;98153.77;105886;1284;22626;-87
2022/09/03 05:08:58;;;;;;;9.50;8.00;;;;;;;10.68;72.14;98154.31;107436;1284;22691;-92
2022/09/03 05:11:29;;;;;;;9.60;7.50;;;;;;;10.73;72.28;98155.16;107283;1284;22607;-92
2022/09/03 05:13:59;;;;;;;9.00;7.20;;;;;;;10.83;72.18;98161.52;106192;1285;22698;-91
2022/09/03 05:16:29;;;;;;;12.40;7.70;;;;;;;10.94;72.41;98165.83;105814;1285;22622;-91
2022/09/03 05:18:59;;;;;;;11.30;7.40;;;;;;;11.07;72.11;98166.42;105980;1284;24066;-91
2022/09/03 05:21:28;;;;;;;9.00;7.00;;;;;;;11.20;72.25;98167.39;105811;1285;22752;-91
2022/09/03 05:23:58;;;;;;;9.70;7.10;;;;;;;11.29;72.45;98167.98;105731;1284;25931;-90
2022/09/03 05:26:29;;;;;;;9.30;6.50;;;;;;;11.36;72.44;98168.52;105817;1284;25217;-90
2022/09/03 05:29:00;;;;;;;12.80;7.00;;;;;;;11.42;72.38;98167.29;105777;1284;22665;-90
2022/09/03 05:31:30;;;;;;;7.60;6.30;;;;;;;11.48;72.26;98165.05;105851;1284;24241;-89
2022/09/03 05:34:01;;;;;;;9.50;6.50;;;;;;;11.54;72.39;98165.55;105685;1284;24286;-89
2022/09/03 05:36:33;;;;;;;10.20;5.80;;;;;;;11.61;72.59;98164.93;105756;1284;22717;-88
2022/09/03 05:39:03;;;;;;;8.90;5.90;;;;;;;11.73;72.75;98167.99;105738;1284;22546;-91
2022/09/03 05:41:32;;;;;;;10.90;6.50;;;;;;;11.85;72.91;98173.63;105794;1285;25362;-90
2022/09/03 05:44:02;;;;;;;8.60;5.70;;;;;;;11.94;73.02;98170.30;105940;1284;25406;-91
2022/09/03 05:46:32;;;;;;;9.20;5.50;;;;;;;12.02;73.48;98161.78;105804;1284;22718;-90
2022/09/03 05:49:01;;;;;;;8.70;6.10;;;;;;;12.10;73.41;98160.06;105802;1284;22657;-90
2022/09/03 05:51:30;;;;;;;9.10;6.00;;;;;;;12.16;73.60;98159.14;105817;1284;22745;-92
2022/09/03 05:53:59;;;;;;;10.00;5.70;;;;;;;12.24;73.37;98161.91;105766;1284;22548;-90
2022/09/03 05:56:29;;;;;;;9.20;5.70;;;;;;;12.36;73.81;98162.16;105686;1284;26495;-90
2022/09/03 05:59:00;;;;;;;10.80;6.10;;;;;;;12.46;73.93;98160.48;105702;1284;22544;-91
2022/09/03 06:01:31;;;;;;;9.40;6.20;;;;;;;12.56;73.76;98160.63;105514;1284;22718;-89
2022/09/03 06:04:02;;;;;;;10.50;6.10;;;;;;;12.68;73.79;98165.33;105659;1284;22558;-89
2022/09/03 06:06:33;;;;;;;10.30;6.40;;;;;;;12.80;73.75;98160.63;105605;1284;22541;-89
2022/09/03 06:09:04;;;;;;;6.70;5.10;;;;;;;12.86;73.98;98157.40;105691;1284;22706;-90
2022/09/03 06:11:34;;;;;;;7.10;6.00;;;;;;;12.94;74.15;98152.77;105613;1284;25418;-91
2022/09/03 06:14:05;;;;;;;7.40;5.50;;;;;;;13.04;74.26;98152.84;105657;1284;23218;-90
2022/09/03 06:16:38;;;;;;;9.00;5.20;;;;;;;13.14;74.45;98150.96;105542;1284;26627;-89
2022/09/03 06:19:09;;;;;;;10.50;6.10;;;;;;;13.18;74.32;98150.48;105550;1284;22536;-90
2022/09/03 06:21:43;;;;;;;22.60;6.00;;;;;;;13.18;74.16;98156.22;105408;1284;22575;-88
2022/09/03 06:24:16;;;;;;;8.30;5.30;;;;;;;13.18;74.50;98158.72;105398;1284;22557;-89
2022/09/03 06:26:45;;;;;;;6.60;5.30;;;;;;;13.18;74.64;98159.10;105501;1284;24599;-89
2022/09/03 06:29:13;;;;;;;10.10;5.60;;;;;;;13.22;74.92;98161.83;106212;1284;24302;-92
2022/09/03 06:31:41;;;;;;;6.40;4.80;;;;;;;13.32;74.53;98159.53;106413;1283;22582;-91
2022/09/03 06:34:09;;;;;;;6.90;4.90;;;;;;;13.49;74.62;98157.29;106266;1284;22572;-91
2022/09/03 06:36:40;;;;;;;6.50;5.10;;;;;;;13.64;74.66;98156.26;105881;1284;24198;-90
2022/09/03 06:39:08;;;;;;;7.10;4.90;;;;;;;13.77;74.61;98156.35;105979;1284;25243;-90
2022/09/03 06:41:37;;;;;;;6.90;4.80;;;;;;;13.87;74.47;98158.79;106011;1284;24260;-89
2022/09/03 06:44:10;;;;;;;7.80;5.00;;;;;;;13.93;74.34;98162.77;106225;1284;24186;-90
2022/09/03 06:46:43;;;;;;;8.00;4.30;;;;;;;14.02;74.44;98163.65;106291;1284;22607;-89
2022/09/03 06:49:11;;;;;;;5.80;4.30;;;;;;;14.11;74.35;98162.68;106154;1284;23345;-90
2022/09/03 06:51:39;;;;;;;8.10;4.10;;;;;;;14.17;74.32;98162.03;106857;1284;22531;-87
2022/09/03 06:54:10;;;;;;;8.50;4.10;;;;;;;14.24;74.35;98159.63;105765;1284;24275;-88
2022/09/03 06:56:40;;;;;;;6.70;4.20;;;;;;;14.32;74.07;98158.08;105533;1284;25240;-88
2022/09/03 06:59:13;;;;;;;8.40;4.40;;;;;;;14.44;74.04;98159.70;105340;1284;25580;-87
2022/09/03 07:01:43;;;;;;;6.50;3.90;;;;;;;14.54;73.85;98159.72;105421;1284;22564;-87
2022/09/03 07:04:18;;;;;;;7.40;3.80;;;;;;;14.62;73.58;98165.75;105305;1284;24276;-93
2022/09/03 07:06:47;;;;;;;4.70;3.90;;;;;;;14.64;73.19;98169.02;105402;1284;25305;-90
2022/09/03 07:09:17;;;;;;;6.60;3.10;;;;;;;14.64;73.09;98171.25;105534;1284;25610;-88
2022/09/03 07:11:45;;;;;;;5.20;3.90;;;;;;;14.67;73.24;98176.65;105502;1284;22573;-90
2022/09/03 07:14:18;;;;;;;6.60;4.20;;;;;;;14.72;73.37;98177.34;105625;1284;22557;-91
2022/09/03 07:16:48;;;;;;;5.00;3.70;;;;;;;14.82;73.00;98181.14;105131;1285;24207;-91
2022/09/03 07:19:16;;;;;;;6.90;4.10;;;;;;;14.91;72.80;98181.63;105456;1284;25537;-90
2022/09/03 07:21:44;;;;;;;6.50;3.70;;;;;;;14.94;72.55;98178.42;105398;1284;24390;-89
2022/09/03 07:24:20;;;;;;;10.00;3.70;;;;;;;14.96;72.21;98175.39;105487;1284;24216;-89
2022/09/03 07:26:49;;;;;;;6.30;4.00;;;;;;;14.99;72.13;98178.23;105516;1284;22572;-89
2022/09/03 07:29:20;;;;;;;5.60;4.00;;;;;;;14.99;71.66;98181.01;105569;1284;22710;-91
2022/09/03 07:31:50;;;;;;;5.20;3.60;;;;;;;14.94;71.68;98181.27;105524;1284;25407;-89
2022/09/03 07:34:23;;;;;;;5.40;3.30;;;;;;;15.01;72.00;98181.59;105586;1284;25466;-87
2022/09/03 07:36:53;;;;;;;4.30;3.30;;;;;;;15.21;72.14;98181.84;105591;1284;22518;-90
2022/09/03 07:39:22;;;;;;;6.20;3.60;;;;;;;15.36;72.01;98182.84;105941;1284;24313;-91
2022/09/03 07:41:50;;;;;;;8.10;3.60;;;;;;;15.42;71.92;98185.29;105726;1284;25243;-91
2022/09/03 07:44:19;;;;;;;5.90;3.40;;;;;;;15.47;71.83;98186.55;105448;1284;22942;-88
2022/09/03 07:46:49;;;;;;;5.30;4.10;;;;;;;15.51;71.53;98178.21;105624;1284;26833;-92
2022/09/03 07:49:20;;;;;;;6.70;3.80;;;;;;;15.55;71.38;98181.03;106012;1284;25411;-91
2022/09/03 07:51:51;;;;;;;5.50;3.40;;;;;;;15.59;71.16;98180.64;105752;1284;24315;-88
2022/09/03 07:54:20;;;;;;;4.30;3.20;;;;;;;15.62;70.91;98178.59;105575;1285;22705;-91
2022/09/03 07:56:48;;;;;;;4.20;3.30;;;;;;;15.61;70.55;98176.60;105595;1284;26494;-90
2022/09/03 07:59:18;;;;;;;4.00;3.10;;;;;;;15.58;70.50;98184.10;105414;1284;25580;-89
2022/09/03 08:01:46;;;;;;;4.70;3.30;;;;;;;15.57;70.57;98189.25;105657;1284;22579;-90
2022/09/03 08:04:14;;;;;;;6.10;3.20;;;;;;;15.58;70.36;98185.27;105706;1284;22664;-90
2022/09/03 08:06:42;;;;;;;12.60;3.70;;;;;;;15.61;70.22;98187.31;105572;1284;26716;-90
2022/09/03 08:09:12;;;;;;;8.00;4.10;;;;;;;15.60;70.38;98190.93;105655;1284;22547;-91
2022/09/03 08:11:42;;;;;;;6.20;3.90;;;;;;;15.59;70.30;98191.58;105746;1284;23948;-92
2022/09/03 08:14:12;;;;;;;6.20;4.30;;;;;;;15.58;70.28;98193.16;105599;1284;22629;-91
2022/09/03 08:16:44;;;;;;;6.10;3.80;;;;;;;15.58;70.08;98192.95;105801;1284;23701;-90
2022/09/03 08:19:14;;;;;;;5.30;3.80;;;;;;;15.55;69.90;98200.48;105625;1284;25368;-90
2022/09/03 08:21:42;;;;;;;5.30;3.70;;;;;;;15.54;70.00;98202.95;105766;1284;22803;-92
2022/09/03 08:24:13;;;;;;;5.80;3.80;;;;;;;15.55;69.69;98208.58;105785;1284;22684;-90
2022/09/03 08:26:42;;;;;;;5.00;3.80;;;;;;;15.53;69.71;98210.34;106069;1284;23797;-91
2022/09/03 08:29:21;;;;;;;6.50;3.90;;;;;;;15.56;69.78;98206.72;105952;1284;24274;-91
2022/09/03 08:31:49;;;;;;;6.50;4.00;;;;;;;15.59;69.44;98205.30;106990;1284;23213;-90
2022/09/03 08:34:18;;;;;;;6.70;4.10;;;;;;;15.60;69.42;98200.09;105961;1284;25353;-90
2022/09/03 08:36:46;;;;;;;5.10;4.20;;;;;;;15.59;69.45;98199.05;105794;1284;22735;-92
2022/09/03 08:39:15;;;;;;;6.80;4.10;;;;;;;15.62;69.61;98196.98;105764;1284;22639;-91
2022/09/03 08:41:43;;;;;;;6.10;3.80;;;;;;;15.64;69.73;98195.83;105672;1284;25345;-90
2022/09/03 08:44:46;;;;;;;7.30;4.40;;;;;;;15.67;69.73;98201.23;105781;1284;26555;-90
2022/09/03 08:47:33;;;;;;;7.40;4.10;;;;;;;15.73;69.70;98200.63;105685;1284;22707;-88
2022/09/03 08:50:16;;;;;;;5.90;4.20;;;;;;;15.75;69.62;98205.00;105399;1284;23741;-90
2022/09/03 08:52:57;;;;;;;10.10;4.30;;;;;;;15.80;69.63;98196.77;105610;1284;22814;-87
2022/09/03 08:55:26;;;;;;;5.90;4.10;;;;;;;15.87;69.21;98194.63;105558;1284;22906;-90
2022/09/03 08:58:03;;;;;;;8.40;4.70;;;;;;;15.89;69.16;98200.56;105616;1285;22493;-89
2022/09/03 09:01:31;;;;;;;6.70;4.10;;;;;;;15.93;69.08;98200.30;105572;1284;25248;-89
2022/09/03 09:04:50;;;;;;;6.40;4.40;;;;;;;16.01;68.95;98201.26;105676;1284;22880;-90
2022/09/03 09:07:33;;;;;;;6.40;4.20;;;;;;;16.13;69.17;98199.32;104897;1290;22710;-89
2022/09/03 09:10:15;;;;;;;5.90;4.10;;;;;;;16.28;68.61;98195.02;105010;1291;25344;-90
2022/09/03 09:13:19;;;;;;;5.80;3.80;;;;;;;16.29;67.71;98194.42;104957;1291;22731;-88
2022/09/03 09:16:12;;;;;;;4.80;4.20;;;;;;;16.24;67.45;98199.15;104818;1290;22698;-89
2022/09/03 09:19:25;;;;;;;5.60;4.10;;;;;;;16.20;67.24;98198.45;105262;1290;22513;-91
2022/09/03 09:22:01;;;;;;;5.30;3.40;;;;;;;16.17;67.29;98197.39;104583;1294;22659;-90
2022/09/03 09:24:39;;;;;;;5.50;3.60;;;;;;;16.21;67.28;98196.39;104557;1294;22646;-90
2022/09/03 09:27:07;;;;;;;7.60;3.50;;;;;;;16.26;67.49;98194.34;104536;1295;24775;-90
2022/09/03 09:29:47;;;;;;;5.40;3.30;;;;;;;16.36;67.25;98190.52;104551;1294;25411;-91
2022/09/03 09:32:18;;;;;;;4.50;3.80;;;;;;;16.39;66.98;98188.04;104418;1297;22554;-90
2022/09/03 09:34:48;;;;;;;5.00;3.60;;;;;;;16.40;67.24;98185.15;104427;1294;22583;-89
2022/09/03 09:37:20;;;;;;;5.00;3.40;;;;;;;16.46;67.16;98184.69;104462;1294;25623;-88
2022/09/03 09:39:59;;;;;;;7.00;3.90;;;;;;;16.50;66.92;98188.40;104707;1294;25383;-91
2022/09/03 09:42:29;;;;;;;3.80;3.30;;;;;;;16.54;66.94;98179.62;104483;1295;25653;-89
2022/09/03 09:45:09;;;;;;;5.00;3.90;;;;;;;16.56;66.61;98179.31;104980;1288;22642;-90
2022/09/03 09:47:39;;;;;;;4.00;3.20;;;;;;;16.53;66.77;98180.51;104905;1289;22562;-89
2022/09/03 09:50:20;;;;;;;4.30;3.60;;;;;;;16.50;66.14;98186.48;104993;1288;22857;-89
2022/09/03 09:53:03;;;;;;;4.70;3.50;;;;;;;16.40;66.23;98192.98;103248;1288;2308118;-88
2022/09/03 09:55:31;;;;;;;4.80;3.50;;;;;;;16.33;66.06;98194.66;104941;1288;22614;-89
2022/09/03 09:58:08;;;;;;;5.10;3.90;;;;;;;16.26;66.08;98195.11;105559;1284;26285;-89
2022/09/03 10:00:41;;;;;;;5.50;3.90;;;;;;;16.24;66.40;98195.48;105564;1284;24219;-90
2022/09/03 10:03:12;;;;;;;5.00;4.20;;;;;;;16.27;66.29;98195.37;105385;1285;22563;-88
2022/09/03 10:05:42;;;;;;;6.40;4.60;;;;;;;16.29;66.18;98191.90;105610;1284;23220;-89
2022/09/03 10:08:20;;;;;;;6.50;4.20;;;;;;;16.31;66.06;98195.30;105590;1284;23287;-89
2022/09/03 10:10:50;;;;;;;5.50;4.20;;;;;;;16.33;66.29;98195.94;105929;1284;24297;-88
2022/09/03 10:13:25;;;;;;;5.80;4.00;;;;;;;16.38;66.43;98202.15;106345;1284;22634;-88
2022/09/03 10:16:20;;;;;;;5.10;3.70;;;;;;;16.42;66.49;98206.42;105722;1284;22805;-90
2022/09/03 10:19:08;;;;;;;5.90;4.10;;;;;;;16.43;66.85;98215.17;105514;1284;22569;-87
2022/09/03 10:22:04;;;;;;;4.70;3.70;;;;;;;16.41;66.88;98214.33;105552;1284;22689;-89
2022/09/03 10:25:00;;;;;;;6.00;4.10;;;;;;;16.33;66.78;98215.05;105349;1286;22867;-89
2022/09/03 10:27:28;;;;;;;5.50;4.40;;;;;;;16.28;66.84;98217.08;105592;1284;22501;-90
2022/09/03 10:29:59;;;;;;;4.90;4.20;;;;;;;16.27;67.01;98214.17;105670;1284;25337;-88
2022/09/03 10:32:38;;;;;;;5.50;4.10;;;;;;;16.28;66.89;98207.32;105708;1284;25375;-90
2022/09/03 10:35:20;;;;;;;4.90;4.40;;;;;;;16.27;66.69;98207.90;105910;1284;24755;-88
2022/09/03 10:38:02;;;;;;;5.10;4.10;;;;;;;16.29;66.59;98206.71;105927;1284;23996;-87
2022/09/03 10:40:47;;;;;;;5.10;4.20;;;;;;;16.27;66.48;98205.80;105847;1284;22509;-88
2022/09/03 10:43:21;;;;;;;6.10;4.90;;;;;;;16.26;66.32;98207.75;106042;1284;22701;-89
2022/09/03 10:46:21;;;;;;;5.80;4.90;;;;;;;16.16;66.25;98214.97;106099;1284;24351;-87
2022/09/03 10:49:23;;;;;;;8.00;4.90;;;;;;;16.06;66.31;98220.18;105809;1284;22591;-89
2022/09/03 10:51:58;;;;;;;5.80;5.00;;;;;;;16.03;66.40;98214.90;105955;1284;22566;-88
2022/09/03 10:54:35;;;;;;;5.30;4.80;;;;;;;16.04;66.61;98212.07;106180;1284;22675;-89
2022/09/03 10:57:30;;;;;;;7.00;5.00;;;;;;;16.10;66.53;98209.30;106079;1284;24000;-89
2022/09/03 11:00:18;;;;;;;5.50;4.50;;;;;;;16.10;66.44;98196.35;105972;1284;25522;-91
2022/09/03 11:03:30;;;;;;;6.00;5.10;;;;;;;16.08;66.52;98188.01;105940;1284;22735;-89
2022/09/03 11:06:18;;;;;;;5.70;4.60;;;;;;;16.12;66.60;98188.86;105104;1290;25375;-88
2022/09/03 11:09:20;;;;;;;4.90;4.20;;;;;;;16.30;66.85;98186.93;105333;1290;22567;-84
2022/09/03 11:11:56;;;;;;;6.00;4.20;;;;;;;16.46;66.92;98189.81;107499;1290;22660;-85
2022/09/03 11:14:49;;;;;;;8.00;4.60;;;;;;;16.49;66.83;98191.87;107622;1290;25256;-83
2022/09/03 11:17:29;;;;;;;5.90;4.90;;;;;;;16.52;66.78;98199.91;107393;1290;22787;-85
2022/09/03 11:20:22;;;;;;;8.10;5.00;;;;;;;16.49;66.50;98198.16;108136;1290;22692;-87
2022/09/03 11:23:00;;;;;;;5.30;4.50;;;;;;;16.54;66.63;98200.67;108016;1290;22597;-85
2022/09/03 11:25:35;;;;;;;5.80;4.70;;;;;;;16.62;66.37;98199.98;108198;1289;22733;-86
2022/09/03 11:28:44;;;;;;;7.80;4.70;;;;;;;16.64;66.23;98197.10;107980;1290;22558;-89
2022/09/03 11:31:17;;;;;;;5.40;4.70;;;;;;;16.66;66.17;98191.48;107012;1297;23074;-87
2022/09/03 11:34:03;;;;;;;6.60;5.40;;;;;;;16.72;66.24;98190.23;107268;1297;22502;-86
2022/09/03 11:36:37;;;;;;;5.40;4.90;;;;;;;16.78;66.10;98187.34;107021;1297;22592;-84
2022/09/03 11:39:31;;;;;;;8.40;5.10;;;;;;;16.81;66.10;98183.77;106922;1296;22583;-86
2022/09/03 11:42:26;;;;;;;7.70;5.30;;;;;;;16.87;65.97;98176.06;107344;1297;22723;-85
2022/09/03 11:45:00;;;;;;;8.10;5.30;;;;;;;16.97;65.73;98173.91;107967;1290;24207;-86
2022/09/03 11:47:43;;;;;;;6.70;4.80;;;;;;;17.09;65.54;98174.04;107688;1290;22737;-88
2022/09/03 11:51:03;;;;;;;6.80;5.00;;;;;;;17.17;65.52;98172.84;107976;1290;22675;-87
2022/09/03 11:53:35;;;;;;;5.70;5.10;;;;;;;17.27;65.11;98168.62;107183;1290;23959;-91
2022/09/03 11:56:03;;;;;;;6.00;4.80;;;;;;;17.39;64.90;98165.83;106698;1290;22584;-88
2022/09/03 11:58:36;;;;;;;7.30;5.10;;;;;;;17.53;64.80;98167.25;106201;1290;22618;-89
2022/09/03 12:01:17;;;;;;;5.90;4.50;;;;;;;17.68;64.39;98164.80;106707;1290;22506;-90
2022/09/03 12:03:52;;;;;;;5.40;4.90;;;;;;;17.90;64.18;98163.27;106107;1290;26561;-88
2022/09/03 12:06:59;;;;;;;7.20;5.20;;;;;;;18.13;63.66;98161.12;106335;1284;24492;-90